sensor_id;sensor_type;location;lat;lon;timestamp;P1;durP1;ratioP1;P2;durP2;ratioP2
24425;SDS011;12611;44.446;26.000;2022-11-20T00:01:35;23.07;;;12.53;;
24425;SDS011;12611;44.446;26.000;2022-11-20T00:04:04;20.57;;;11.97;;
24425;SDS011;12611;44.446;26.000;2022-11-20T00:06:34;22.50;;;13.13;;
24425;SDS011;12611;44.446;26.000;2022-11-20T00:09:02;21.93;;;12.47;;
24425;SDS011;12611;44.446;26.000;2022-11-20T00:11:31;21.83;;;12.93;;
24425;SDS011;12611;44.446;26.000;2022-11-20T00:14:00;25.40;;;13.93;;
24425;SDS011;12611;44.446;26.000;2022-11-20T00:16:30;20.90;;;13.03;;
24425;SDS011;12611;44.446;26.000;2022-11-20T00:19:00;21.53;;;13.23;;
24425;SDS011;12611;44.446;26.000;2022-11-20T00:21:29;20.63;;;12.73;;
24425;SDS011;12611;44.446;26.000;2022-11-20T00:23:59;23.43;;;13.00;;
24425;SDS011;12611;44.446;26.000;2022-11-20T00:26:27;23.83;;;12.77;;
24425;SDS011;12611;44.446;26.000;2022-11-20T00:28:57;23.33;;;13.10;;
24425;SDS011;12611;44.446;26.000;2022-11-20T00:31:26;23.53;;;13.40;;
24425;SDS011;12611;44.446;26.000;2022-11-20T00:33:55;23.57;;;13.70;;
24425;SDS011;12611;44.446;26.000;2022-11-20T00:36:24;23.33;;;13.40;;
24425;SDS011;12611;44.446;26.000;2022-11-20T00:38:54;23.03;;;14.17;;
24425;SDS011;12611;44.446;26.000;2022-11-20T00:41:25;28.60;;;14.23;;
24425;SDS011;12611;44.446;26.000;2022-11-20T00:43:55;24.97;;;14.40;;
24425;SDS011;12611;44.446;26.000;2022-11-20T00:46:24;24.87;;;13.50;;
24425;SDS011;12611;44.446;26.000;2022-11-20T00:48:53;23.67;;;13.80;;
24425;SDS011;12611;44.446;26.000;2022-11-20T00:51:23;24.07;;;14.57;;
24425;SDS011;12611;44.446;26.000;2022-11-20T00:53:54;22.97;;;13.07;;
24425;SDS011;12611;44.446;26.000;2022-11-20T00:56:24;26.90;;;14.80;;
24425;SDS011;12611;44.446;26.000;2022-11-20T00:58:53;25.90;;;14.53;;
24425;SDS011;12611;44.446;26.000;2022-11-20T01:01:22;25.43;;;15.10;;
24425;SDS011;12611;44.446;26.000;2022-11-20T01:03:53;23.33;;;13.57;;
24425;SDS011;12611;44.446;26.000;2022-11-20T01:06:23;34.60;;;15.13;;
24425;SDS011;12611;44.446;26.000;2022-11-20T01:08:53;25.50;;;14.10;;
24425;SDS011;12611;44.446;26.000;2022-11-20T01:11:25;25.90;;;15.07;;
24425;SDS011;12611;44.446;26.000;2022-11-20T01:13:57;29.30;;;14.57;;
24425;SDS011;12611;44.446;26.000;2022-11-20T01:16:27;26.70;;;16.03;;
24425;SDS011;12611;44.446;26.000;2022-11-20T01:18:57;27.07;;;14.60;;
24425;SDS011;12611;44.446;26.000;2022-11-20T01:21:27;29.30;;;15.47;;
24425;SDS011;12611;44.446;26.000;2022-11-20T01:23:58;24.73;;;13.77;;
24425;SDS011;12611;44.446;26.000;2022-11-20T01:26:29;25.67;;;15.07;;
24425;SDS011;12611;44.446;26.000;2022-11-20T01:28:59;28.37;;;14.33;;
24425;SDS011;12611;44.446;26.000;2022-11-20T01:31:29;27.37;;;14.80;;
24425;SDS011;12611;44.446;26.000;2022-11-20T01:33:59;28.70;;;15.93;;
24425;SDS011;12611;44.446;26.000;2022-11-20T01:36:29;29.17;;;16.23;;
24425;SDS011;12611;44.446;26.000;2022-11-20T01:38:59;29.60;;;15.43;;
24425;SDS011;12611;44.446;26.000;2022-11-20T01:41:32;24.83;;;14.13;;
24425;SDS011;12611;44.446;26.000;2022-11-20T01:44:19;28.67;;;14.17;;
24425;SDS011;12611;44.446;26.000;2022-11-20T01:46:52;25.77;;;14.00;;
24425;SDS011;12611;44.446;26.000;2022-11-20T01:49:27;25.93;;;14.67;;
24425;SDS011;12611;44.446;26.000;2022-11-20T01:52:03;27.77;;;14.77;;
24425;SDS011;12611;44.446;26.000;2022-11-20T01:54:35;28.27;;;14.83;;
24425;SDS011;12611;44.446;26.000;2022-11-20T02:00:07;27.53;;;15.40;;
24425;SDS011;12611;44.446;26.000;2022-11-20T02:02:42;27.17;;;14.80;;
24425;SDS011;12611;44.446;26.000;2022-11-20T02:05:17;26.40;;;14.57;;
24425;SDS011;12611;44.446;26.000;2022-11-20T02:07:50;24.63;;;13.67;;
24425;SDS011;12611;44.446;26.000;2022-11-20T02:10:20;26.93;;;13.57;;
24425;SDS011;12611;44.446;26.000;2022-11-20T02:12:51;28.87;;;14.00;;
24425;SDS011;12611;44.446;26.000;2022-11-20T02:15:38;26.10;;;13.97;;
24425;SDS011;12611;44.446;26.000;2022-11-20T02:18:07;28.75;;;15.68;;
24425;SDS011;12611;44.446;26.000;2022-11-20T02:20:36;26.37;;;13.77;;
24425;SDS011;12611;44.446;26.000;2022-11-20T02:23:08;24.67;;;13.80;;
24425;SDS011;12611;44.446;26.000;2022-11-20T02:25:47;26.73;;;13.40;;
24425;SDS011;12611;44.446;26.000;2022-11-20T02:28:17;24.27;;;11.80;;
24425;SDS011;12611;44.446;26.000;2022-11-20T02:30:45;22.17;;;12.13;;
24425;SDS011;12611;44.446;26.000;2022-11-20T02:33:14;23.70;;;12.03;;
24425;SDS011;12611;44.446;26.000;2022-11-20T02:35:43;21.80;;;12.60;;
24425;SDS011;12611;44.446;26.000;2022-11-20T02:38:13;22.10;;;12.43;;
24425;SDS011;12611;44.446;26.000;2022-11-20T02:40:41;20.03;;;11.40;;
24425;SDS011;12611;44.446;26.000;2022-11-20T02:43:11;22.57;;;12.27;;
24425;SDS011;12611;44.446;26.000;2022-11-20T02:45:40;21.20;;;11.70;;
24425;SDS011;12611;44.446;26.000;2022-11-20T02:48:08;20.60;;;10.17;;
24425;SDS011;12611;44.446;26.000;2022-11-20T02:50:37;21.83;;;11.80;;
24425;SDS011;12611;44.446;26.000;2022-11-20T02:53:06;19.20;;;11.17;;
24425;SDS011;12611;44.446;26.000;2022-11-20T02:55:41;22.57;;;11.40;;
24425;SDS011;12611;44.446;26.000;2022-11-20T02:58:29;19.53;;;10.50;;
24425;SDS011;12611;44.446;26.000;2022-11-20T03:01:16;19.97;;;11.80;;
24425;SDS011;12611;44.446;26.000;2022-11-20T03:03:44;24.53;;;11.20;;
24425;SDS011;12611;44.446;26.000;2022-11-20T03:06:14;16.17;;;9.90;;
24425;SDS011;12611;44.446;26.000;2022-11-20T03:08:43;22.30;;;10.57;;
24425;SDS011;12611;44.446;26.000;2022-11-20T03:11:11;21.93;;;10.00;;
24425;SDS011;12611;44.446;26.000;2022-11-20T03:13:41;20.30;;;10.03;;
24425;SDS011;12611;44.446;26.000;2022-11-20T03:16:10;19.73;;;9.53;;
24425;SDS011;12611;44.446;26.000;2022-11-20T03:18:39;18.97;;;10.57;;
24425;SDS011;12611;44.446;26.000;2022-11-20T03:21:08;17.80;;;9.00;;
24425;SDS011;12611;44.446;26.000;2022-11-20T03:23:38;20.40;;;10.43;;
24425;SDS011;12611;44.446;26.000;2022-11-20T03:26:08;18.83;;;9.47;;
24425;SDS011;12611;44.446;26.000;2022-11-20T03:28:37;17.57;;;8.27;;
24425;SDS011;12611;44.446;26.000;2022-11-20T03:31:08;17.63;;;9.27;;
24425;SDS011;12611;44.446;26.000;2022-11-20T03:33:38;13.87;;;8.00;;
24425;SDS011;12611;44.446;26.000;2022-11-20T03:36:08;14.40;;;7.80;;
24425;SDS011;12611;44.446;26.000;2022-11-20T03:38:38;14.47;;;7.43;;
24425;SDS011;12611;44.446;26.000;2022-11-20T03:41:07;14.57;;;7.70;;
24425;SDS011;12611;44.446;26.000;2022-11-20T03:43:36;15.20;;;7.37;;
24425;SDS011;12611;44.446;26.000;2022-11-20T03:46:05;17.10;;;7.27;;
24425;SDS011;12611;44.446;26.000;2022-11-20T03:48:35;14.07;;;7.73;;
24425;SDS011;12611;44.446;26.000;2022-11-20T03:51:07;17.67;;;7.03;;
24425;SDS011;12611;44.446;26.000;2022-11-20T03:53:37;12.43;;;6.90;;
24425;SDS011;12611;44.446;26.000;2022-11-20T03:56:08;12.20;;;5.90;;
24425;SDS011;12611;44.446;26.000;2022-11-20T03:58:49;12.20;;;6.57;;
24425;SDS011;12611;44.446;26.000;2022-11-20T04:01:25;11.00;;;6.10;;
24425;SDS011;12611;44.446;26.000;2022-11-20T04:03:56;11.90;;;6.70;;
24425;SDS011;12611;44.446;26.000;2022-11-20T04:06:26;12.93;;;5.87;;
24425;SDS011;12611;44.446;26.000;2022-11-20T04:08:55;10.40;;;5.57;;
24425;SDS011;12611;44.446;26.000;2022-11-20T04:11:27;13.57;;;6.53;;
24425;SDS011;12611;44.446;26.000;2022-11-20T04:13:57;16.60;;;6.17;;
24425;SDS011;12611;44.446;26.000;2022-11-20T04:16:26;11.87;;;6.20;;
24425;SDS011;12611;44.446;26.000;2022-11-20T04:18:59;12.03;;;6.07;;
24425;SDS011;12611;44.446;26.000;2022-11-20T04:21:29;12.77;;;5.60;;
24425;SDS011;12611;44.446;26.000;2022-11-20T04:23:57;18.45;;;7.22;;
24425;SDS011;12611;44.446;26.000;2022-11-20T04:26:27;13.23;;;6.23;;
24425;SDS011;12611;44.446;26.000;2022-11-20T04:28:56;14.43;;;6.43;;
24425;SDS011;12611;44.446;26.000;2022-11-20T04:31:25;13.63;;;6.10;;
24425;SDS011;12611;44.446;26.000;2022-11-20T04:33:55;14.17;;;5.93;;
24425;SDS011;12611;44.446;26.000;2022-11-20T04:36:28;13.60;;;6.70;;
24425;SDS011;12611;44.446;26.000;2022-11-20T04:38:58;14.17;;;6.53;;
24425;SDS011;12611;44.446;26.000;2022-11-20T04:41:28;14.60;;;6.23;;
24425;SDS011;12611;44.446;26.000;2022-11-20T04:43:58;14.23;;;6.47;;
24425;SDS011;12611;44.446;26.000;2022-11-20T04:46:30;13.90;;;6.53;;
24425;SDS011;12611;44.446;26.000;2022-11-20T04:48:58;13.03;;;6.90;;
24425;SDS011;12611;44.446;26.000;2022-11-20T04:51:28;14.03;;;6.90;;
24425;SDS011;12611;44.446;26.000;2022-11-20T04:53:56;14.37;;;6.43;;
24425;SDS011;12611;44.446;26.000;2022-11-20T04:56:25;13.47;;;6.90;;
24425;SDS011;12611;44.446;26.000;2022-11-20T04:58:54;18.07;;;7.13;;
24425;SDS011;12611;44.446;26.000;2022-11-20T05:01:23;14.37;;;5.97;;
24425;SDS011;12611;44.446;26.000;2022-11-20T05:03:51;11.47;;;6.03;;
24425;SDS011;12611;44.446;26.000;2022-11-20T05:06:20;13.80;;;6.37;;
24425;SDS011;12611;44.446;26.000;2022-11-20T05:08:50;10.93;;;5.70;;
24425;SDS011;12611;44.446;26.000;2022-11-20T05:11:19;13.00;;;5.60;;
24425;SDS011;12611;44.446;26.000;2022-11-20T05:13:48;13.93;;;6.47;;
24425;SDS011;12611;44.446;26.000;2022-11-20T05:16:18;12.93;;;6.23;;
24425;SDS011;12611;44.446;26.000;2022-11-20T05:18:48;15.97;;;6.03;;
24425;SDS011;12611;44.446;26.000;2022-11-20T05:21:20;15.57;;;6.43;;
24425;SDS011;12611;44.446;26.000;2022-11-20T05:23:49;11.47;;;5.97;;
24425;SDS011;12611;44.446;26.000;2022-11-20T05:26:19;14.63;;;6.63;;
24425;SDS011;12611;44.446;26.000;2022-11-20T05:28:49;13.73;;;5.60;;
24425;SDS011;12611;44.446;26.000;2022-11-20T05:31:18;17.30;;;6.80;;
24425;SDS011;12611;44.446;26.000;2022-11-20T05:33:53;11.57;;;6.60;;
24425;SDS011;12611;44.446;26.000;2022-11-20T05:36:23;14.10;;;6.43;;
24425;SDS011;12611;44.446;26.000;2022-11-20T05:38:53;11.60;;;5.57;;
24425;SDS011;12611;44.446;26.000;2022-11-20T05:41:27;12.73;;;6.43;;
24425;SDS011;12611;44.446;26.000;2022-11-20T05:43:55;12.17;;;6.63;;
24425;SDS011;12611;44.446;26.000;2022-11-20T05:46:25;14.43;;;6.43;;
24425;SDS011;12611;44.446;26.000;2022-11-20T05:48:55;10.67;;;5.23;;
24425;SDS011;12611;44.446;26.000;2022-11-20T05:51:26;8.77;;;5.10;;
24425;SDS011;12611;44.446;26.000;2022-11-20T05:53:57;10.60;;;5.00;;
24425;SDS011;12611;44.446;26.000;2022-11-20T05:56:26;8.33;;;4.43;;
24425;SDS011;12611;44.446;26.000;2022-11-20T05:59:00;12.33;;;5.00;;
24425;SDS011;12611;44.446;26.000;2022-11-20T06:01:29;11.00;;;4.53;;
24425;SDS011;12611;44.446;26.000;2022-11-20T06:03:58;9.17;;;4.43;;
24425;SDS011;12611;44.446;26.000;2022-11-20T06:06:26;9.10;;;4.33;;
24425;SDS011;12611;44.446;26.000;2022-11-20T06:08:55;8.87;;;4.43;;
24425;SDS011;12611;44.446;26.000;2022-11-20T06:11:25;6.90;;;3.80;;
24425;SDS011;12611;44.446;26.000;2022-11-20T06:13:56;8.90;;;4.47;;
24425;SDS011;12611;44.446;26.000;2022-11-20T06:16:27;9.27;;;4.97;;
24425;SDS011;12611;44.446;26.000;2022-11-20T06:18:55;6.67;;;3.90;;
24425;SDS011;12611;44.446;26.000;2022-11-20T06:21:24;8.30;;;4.63;;
24425;SDS011;12611;44.446;26.000;2022-11-20T06:23:52;6.87;;;4.23;;
24425;SDS011;12611;44.446;26.000;2022-11-20T06:26:23;8.77;;;4.13;;
24425;SDS011;12611;44.446;26.000;2022-11-20T06:28:55;6.00;;;4.03;;
24425;SDS011;12611;44.446;26.000;2022-11-20T06:31:24;6.10;;;3.70;;
24425;SDS011;12611;44.446;26.000;2022-11-20T06:33:53;8.67;;;3.90;;
24425;SDS011;12611;44.446;26.000;2022-11-20T06:36:22;10.83;;;4.93;;
24425;SDS011;12611;44.446;26.000;2022-11-20T06:38:51;9.83;;;4.27;;
24425;SDS011;12611;44.446;26.000;2022-11-20T06:41:20;9.43;;;4.20;;
24425;SDS011;12611;44.446;26.000;2022-11-20T06:43:50;9.13;;;4.37;;
24425;SDS011;12611;44.446;26.000;2022-11-20T06:46:18;8.07;;;4.23;;
24425;SDS011;12611;44.446;26.000;2022-11-20T06:48:47;7.23;;;4.07;;
24425;SDS011;12611;44.446;26.000;2022-11-20T06:51:16;11.57;;;4.90;;
24425;SDS011;12611;44.446;26.000;2022-11-20T06:53:45;13.30;;;4.97;;
24425;SDS011;12611;44.446;26.000;2022-11-20T06:56:13;8.30;;;3.67;;
24425;SDS011;12611;44.446;26.000;2022-11-20T06:58:43;16.23;;;5.93;;
24425;SDS011;12611;44.446;26.000;2022-11-20T07:01:16;13.97;;;5.37;;
24425;SDS011;12611;44.446;26.000;2022-11-20T07:03:44;6.30;;;3.73;;
24425;SDS011;12611;44.446;26.000;2022-11-20T07:06:19;8.43;;;3.60;;
24425;SDS011;12611;44.446;26.000;2022-11-20T07:08:47;9.43;;;3.50;;
24425;SDS011;12611;44.446;26.000;2022-11-20T07:11:18;8.63;;;3.43;;
24425;SDS011;12611;44.446;26.000;2022-11-20T07:13:48;9.67;;;4.10;;
24425;SDS011;12611;44.446;26.000;2022-11-20T07:16:17;5.57;;;3.47;;
24425;SDS011;12611;44.446;26.000;2022-11-20T07:18:45;5.87;;;3.00;;
24425;SDS011;12611;44.446;26.000;2022-11-20T07:21:16;6.20;;;2.57;;
24425;SDS011;12611;44.446;26.000;2022-11-20T07:23:44;7.23;;;3.17;;
24425;SDS011;12611;44.446;26.000;2022-11-20T07:26:15;8.87;;;2.87;;
24425;SDS011;12611;44.446;26.000;2022-11-20T07:28:43;6.07;;;2.80;;
24425;SDS011;12611;44.446;26.000;2022-11-20T07:31:14;6.77;;;3.23;;
24425;SDS011;12611;44.446;26.000;2022-11-20T07:33:45;6.20;;;2.90;;
24425;SDS011;12611;44.446;26.000;2022-11-20T07:36:13;9.63;;;4.10;;
24425;SDS011;12611;44.446;26.000;2022-11-20T07:38:41;7.10;;;3.10;;
24425;SDS011;12611;44.446;26.000;2022-11-20T07:41:10;8.18;;;3.70;;
24425;SDS011;12611;44.446;26.000;2022-11-20T07:43:38;5.97;;;2.90;;
24425;SDS011;12611;44.446;26.000;2022-11-20T07:46:07;6.67;;;3.10;;
24425;SDS011;12611;44.446;26.000;2022-11-20T07:48:37;6.77;;;3.30;;
24425;SDS011;12611;44.446;26.000;2022-11-20T07:51:05;7.67;;;3.43;;
24425;SDS011;12611;44.446;26.000;2022-11-20T07:53:33;6.70;;;3.10;;
24425;SDS011;12611;44.446;26.000;2022-11-20T07:56:02;7.07;;;3.23;;
24425;SDS011;12611;44.446;26.000;2022-11-20T07:58:31;5.50;;;3.30;;
24425;SDS011;12611;44.446;26.000;2022-11-20T08:01:03;9.77;;;3.77;;
24425;SDS011;12611;44.446;26.000;2022-11-20T08:03:33;8.80;;;3.50;;
24425;SDS011;12611;44.446;26.000;2022-11-20T08:06:05;7.77;;;3.67;;
24425;SDS011;12611;44.446;26.000;2022-11-20T08:08:35;7.30;;;3.20;;
24425;SDS011;12611;44.446;26.000;2022-11-20T08:11:08;6.57;;;3.23;;
24425;SDS011;12611;44.446;26.000;2022-11-20T08:13:54;5.13;;;2.70;;
24425;SDS011;12611;44.446;26.000;2022-11-20T08:16:41;4.50;;;2.73;;
24425;SDS011;12611;44.446;26.000;2022-11-20T08:19:10;7.30;;;3.80;;
24425;SDS011;12611;44.446;26.000;2022-11-20T08:21:40;5.20;;;2.97;;
24425;SDS011;12611;44.446;26.000;2022-11-20T08:24:09;6.63;;;2.83;;
24425;SDS011;12611;44.446;26.000;2022-11-20T08:26:38;4.43;;;2.90;;
24425;SDS011;12611;44.446;26.000;2022-11-20T08:29:07;5.87;;;3.00;;
24425;SDS011;12611;44.446;26.000;2022-11-20T08:31:36;6.37;;;3.33;;
24425;SDS011;12611;44.446;26.000;2022-11-20T08:34:04;5.37;;;2.60;;
24425;SDS011;12611;44.446;26.000;2022-11-20T08:36:35;9.27;;;3.43;;
24425;SDS011;12611;44.446;26.000;2022-11-20T08:39:11;6.27;;;3.07;;
24425;SDS011;12611;44.446;26.000;2022-11-20T08:41:39;8.13;;;3.00;;
24425;SDS011;12611;44.446;26.000;2022-11-20T08:44:08;7.90;;;3.60;;
24425;SDS011;12611;44.446;26.000;2022-11-20T08:46:36;9.13;;;3.53;;
24425;SDS011;12611;44.446;26.000;2022-11-20T08:49:07;5.30;;;3.03;;
24425;SDS011;12611;44.446;26.000;2022-11-20T08:51:37;8.13;;;3.73;;
24425;SDS011;12611;44.446;26.000;2022-11-20T08:54:08;8.00;;;3.57;;
24425;SDS011;12611;44.446;26.000;2022-11-20T08:56:36;7.17;;;3.73;;
24425;SDS011;12611;44.446;26.000;2022-11-20T08:59:07;7.53;;;3.70;;
24425;SDS011;12611;44.446;26.000;2022-11-20T09:01:55;9.40;;;4.20;;
24425;SDS011;12611;44.446;26.000;2022-11-20T09:04:25;8.00;;;4.30;;
24425;SDS011;12611;44.446;26.000;2022-11-20T09:06:53;12.70;;;4.53;;
24425;SDS011;12611;44.446;26.000;2022-11-20T09:09:23;7.47;;;4.43;;
24425;SDS011;12611;44.446;26.000;2022-11-20T09:11:51;9.93;;;4.30;;
24425;SDS011;12611;44.446;26.000;2022-11-20T09:14:20;10.57;;;4.93;;
24425;SDS011;12611;44.446;26.000;2022-11-20T09:16:51;13.30;;;5.10;;
24425;SDS011;12611;44.446;26.000;2022-11-20T09:19:19;10.00;;;4.77;;
24425;SDS011;12611;44.446;26.000;2022-11-20T09:22:03;14.87;;;4.87;;
24425;SDS011;12611;44.446;26.000;2022-11-20T09:24:32;7.43;;;4.10;;
24425;SDS011;12611;44.446;26.000;2022-11-20T09:27:01;11.30;;;5.23;;
24425;SDS011;12611;44.446;26.000;2022-11-20T09:29:31;9.00;;;5.00;;
24425;SDS011;12611;44.446;26.000;2022-11-20T09:31:59;10.67;;;5.30;;
24425;SDS011;12611;44.446;26.000;2022-11-20T09:34:29;8.87;;;4.10;;
24425;SDS011;12611;44.446;26.000;2022-11-20T09:36:57;8.57;;;4.87;;
24425;SDS011;12611;44.446;26.000;2022-11-20T09:39:33;10.33;;;4.53;;
24425;SDS011;12611;44.446;26.000;2022-11-20T09:42:17;6.47;;;4.00;;
24425;SDS011;12611;44.446;26.000;2022-11-20T09:45:02;9.23;;;3.90;;
24425;SDS011;12611;44.446;26.000;2022-11-20T09:47:46;12.07;;;5.60;;
24425;SDS011;12611;44.446;26.000;2022-11-20T09:50:27;7.97;;;4.33;;
24425;SDS011;12611;44.446;26.000;2022-11-20T09:53:06;8.77;;;4.97;;
24425;SDS011;12611;44.446;26.000;2022-11-20T09:55:41;10.60;;;4.53;;
24425;SDS011;12611;44.446;26.000;2022-11-20T09:58:14;7.63;;;4.60;;
24425;SDS011;12611;44.446;26.000;2022-11-20T10:00:50;8.87;;;5.13;;
24425;SDS011;12611;44.446;26.000;2022-11-20T10:03:24;7.13;;;4.30;;
24425;SDS011;12611;44.446;26.000;2022-11-20T10:06:03;10.93;;;4.40;;
24425;SDS011;12611;44.446;26.000;2022-11-20T10:08:37;7.27;;;4.17;;
24425;SDS011;12611;44.446;26.000;2022-11-20T10:11:12;7.40;;;4.20;;
24425;SDS011;12611;44.446;26.000;2022-11-20T10:13:46;9.83;;;4.40;;
24425;SDS011;12611;44.446;26.000;2022-11-20T10:16:26;7.07;;;4.37;;
24425;SDS011;12611;44.446;26.000;2022-11-20T10:19:10;9.90;;;4.80;;
24425;SDS011;12611;44.446;26.000;2022-11-20T10:21:54;9.70;;;4.97;;
24425;SDS011;12611;44.446;26.000;2022-11-20T10:27:28;8.07;;;4.83;;
24425;SDS011;12611;44.446;26.000;2022-11-20T10:30:10;8.37;;;4.77;;
24425;SDS011;12611;44.446;26.000;2022-11-20T10:32:41;9.23;;;5.70;;
24425;SDS011;12611;44.446;26.000;2022-11-20T10:35:16;10.90;;;5.57;;
24425;SDS011;12611;44.446;26.000;2022-11-20T10:37:49;13.00;;;6.20;;
24425;SDS011;12611;44.446;26.000;2022-11-20T10:40:24;11.20;;;5.93;;
24425;SDS011;12611;44.446;26.000;2022-11-20T10:43:01;15.05;;;7.70;;
24425;SDS011;12611;44.446;26.000;2022-11-20T10:45:43;14.10;;;5.90;;
24425;SDS011;12611;44.446;26.000;2022-11-20T10:48:21;13.43;;;6.77;;
24425;SDS011;12611;44.446;26.000;2022-11-20T10:50:55;9.90;;;5.30;;
24425;SDS011;12611;44.446;26.000;2022-11-20T10:53:35;10.03;;;5.87;;
24425;SDS011;12611;44.446;26.000;2022-11-20T10:56:17;10.10;;;5.70;;
24425;SDS011;12611;44.446;26.000;2022-11-20T10:58:52;10.27;;;5.87;;
24425;SDS011;12611;44.446;26.000;2022-11-20T11:01:29;14.57;;;7.03;;
24425;SDS011;12611;44.446;26.000;2022-11-20T11:03:58;15.60;;;6.97;;
24425;SDS011;12611;44.446;26.000;2022-11-20T11:06:28;13.87;;;6.70;;
24425;SDS011;12611;44.446;26.000;2022-11-20T11:09:02;11.57;;;6.73;;
24425;SDS011;12611;44.446;26.000;2022-11-20T11:11:37;14.73;;;6.77;;
24425;SDS011;12611;44.446;26.000;2022-11-20T11:14:08;12.07;;;6.90;;
24425;SDS011;12611;44.446;26.000;2022-11-20T11:16:44;15.83;;;7.50;;
24425;SDS011;12611;44.446;26.000;2022-11-20T11:19:17;13.30;;;7.20;;
24425;SDS011;12611;44.446;26.000;2022-11-20T11:21:47;15.00;;;7.43;;
24425;SDS011;12611;44.446;26.000;2022-11-20T11:24:21;13.53;;;7.10;;
24425;SDS011;12611;44.446;26.000;2022-11-20T11:27:11;13.63;;;6.37;;
24425;SDS011;12611;44.446;26.000;2022-11-20T11:29:44;14.27;;;6.37;;
24425;SDS011;12611;44.446;26.000;2022-11-20T11:32:14;11.00;;;6.30;;
24425;SDS011;12611;44.446;26.000;2022-11-20T11:34:58;16.35;;;7.70;;
24425;SDS011;12611;44.446;26.000;2022-11-20T11:37:27;13.13;;;7.10;;
24425;SDS011;12611;44.446;26.000;2022-11-20T11:40:01;19.87;;;7.67;;
24425;SDS011;12611;44.446;26.000;2022-11-20T11:42:52;15.60;;;6.13;;
24425;SDS011;12611;44.446;26.000;2022-11-20T11:45:25;14.07;;;7.20;;
24425;SDS011;12611;44.446;26.000;2022-11-20T11:47:53;13.18;;;6.82;;
24425;SDS011;12611;44.446;26.000;2022-11-20T11:50:28;14.33;;;6.57;;
24425;SDS011;12611;44.446;26.000;2022-11-20T11:52:59;15.23;;;6.70;;
24425;SDS011;12611;44.446;26.000;2022-11-20T11:55:36;14.37;;;7.07;;
24425;SDS011;12611;44.446;26.000;2022-11-20T11:58:15;13.63;;;6.50;;
24425;SDS011;12611;44.446;26.000;2022-11-20T12:00:56;8.73;;;5.63;;
24425;SDS011;12611;44.446;26.000;2022-11-20T12:03:29;11.80;;;6.07;;
24425;SDS011;12611;44.446;26.000;2022-11-20T12:06:03;11.83;;;6.40;;
24425;SDS011;12611;44.446;26.000;2022-11-20T12:08:38;11.57;;;6.30;;
24425;SDS011;12611;44.446;26.000;2022-11-20T12:11:12;14.07;;;7.33;;
24425;SDS011;12611;44.446;26.000;2022-11-20T12:13:45;13.27;;;7.10;;
24425;SDS011;12611;44.446;26.000;2022-11-20T12:16:22;17.57;;;8.03;;
24425;SDS011;12611;44.446;26.000;2022-11-20T12:18:52;9.90;;;6.90;;
24425;SDS011;12611;44.446;26.000;2022-11-20T12:21:23;13.77;;;7.07;;
24425;SDS011;12611;44.446;26.000;2022-11-20T12:24:06;14.13;;;6.83;;
24425;SDS011;12611;44.446;26.000;2022-11-20T12:26:49;10.03;;;6.20;;
24425;SDS011;12611;44.446;26.000;2022-11-20T12:29:32;11.30;;;6.00;;
24425;SDS011;12611;44.446;26.000;2022-11-20T12:32:22;10.93;;;7.00;;
24425;SDS011;12611;44.446;26.000;2022-11-20T12:35:03;11.57;;;6.50;;
24425;SDS011;12611;44.446;26.000;2022-11-20T12:37:39;13.47;;;7.23;;
24425;SDS011;12611;44.446;26.000;2022-11-20T12:40:18;11.90;;;6.47;;
24425;SDS011;12611;44.446;26.000;2022-11-20T12:43:01;12.77;;;7.07;;
24425;SDS011;12611;44.446;26.000;2022-11-20T12:51:42;11.33;;;6.90;;
24425;SDS011;12611;44.446;26.000;2022-11-20T12:57:26;11.87;;;6.80;;
24425;SDS011;12611;44.446;26.000;2022-11-20T13:00:07;11.80;;;6.40;;
24425;SDS011;12611;44.446;26.000;2022-11-20T13:02:52;13.77;;;7.93;;
24425;SDS011;12611;44.446;26.000;2022-11-20T13:05:50;14.30;;;7.60;;
24425;SDS011;12611;44.446;26.000;2022-11-20T13:08:25;12.33;;;8.30;;
24425;SDS011;12611;44.446;26.000;2022-11-20T13:10:58;13.83;;;8.37;;
24425;SDS011;12611;44.446;26.000;2022-11-20T13:13:33;13.83;;;8.40;;
24425;SDS011;12611;44.446;26.000;2022-11-20T13:16:10;13.57;;;7.97;;
24425;SDS011;12611;44.446;26.000;2022-11-20T13:18:44;13.30;;;7.83;;
24425;SDS011;12611;44.446;26.000;2022-11-20T13:21:18;15.90;;;8.67;;
24425;SDS011;12611;44.446;26.000;2022-11-20T13:23:48;14.60;;;8.20;;
24425;SDS011;12611;44.446;26.000;2022-11-20T13:26:18;12.80;;;7.93;;
24425;SDS011;12611;44.446;26.000;2022-11-20T13:28:59;12.83;;;7.90;;
24425;SDS011;12611;44.446;26.000;2022-11-20T13:31:31;16.47;;;8.80;;
24425;SDS011;12611;44.446;26.000;2022-11-20T13:34:02;34.90;;;14.50;;
24425;SDS011;12611;44.446;26.000;2022-11-20T13:36:34;28.17;;;12.00;;
24425;SDS011;12611;44.446;26.000;2022-11-20T13:39:03;18.20;;;10.20;;
24425;SDS011;12611;44.446;26.000;2022-11-20T13:41:31;17.33;;;9.40;;
24425;SDS011;12611;44.446;26.000;2022-11-20T13:44:10;19.87;;;10.47;;
24425;SDS011;12611;44.446;26.000;2022-11-20T13:46:42;18.97;;;9.57;;
24425;SDS011;12611;44.446;26.000;2022-11-20T13:49:16;18.83;;;9.90;;
24425;SDS011;12611;44.446;26.000;2022-11-20T13:51:47;18.20;;;10.13;;
24425;SDS011;12611;44.446;26.000;2022-11-20T13:54:28;20.83;;;10.57;;
24425;SDS011;12611;44.446;26.000;2022-11-20T13:57:40;18.97;;;10.77;;
24425;SDS011;12611;44.446;26.000;2022-11-20T14:00:26;14.37;;;8.17;;
24425;SDS011;12611;44.446;26.000;2022-11-20T14:02:59;14.93;;;8.87;;
24425;SDS011;12611;44.446;26.000;2022-11-20T14:05:37;16.43;;;9.30;;
24425;SDS011;12611;44.446;26.000;2022-11-20T14:08:13;15.50;;;9.83;;
24425;SDS011;12611;44.446;26.000;2022-11-20T14:11:01;15.67;;;8.37;;
24425;SDS011;12611;44.446;26.000;2022-11-20T14:13:55;15.23;;;8.90;;
24425;SDS011;12611;44.446;26.000;2022-11-20T14:16:26;14.97;;;9.03;;
24425;SDS011;12611;44.446;26.000;2022-11-20T14:18:56;16.30;;;9.43;;
24425;SDS011;12611;44.446;26.000;2022-11-20T14:21:53;15.33;;;8.70;;
24425;SDS011;12611;44.446;26.000;2022-11-20T14:24:36;16.87;;;8.90;;
24425;SDS011;12611;44.446;26.000;2022-11-20T14:27:09;16.63;;;9.30;;
24425;SDS011;12611;44.446;26.000;2022-11-20T14:29:40;15.73;;;8.80;;
24425;SDS011;12611;44.446;26.000;2022-11-20T14:32:10;15.63;;;9.40;;
24425;SDS011;12611;44.446;26.000;2022-11-20T14:34:42;15.80;;;8.90;;
24425;SDS011;12611;44.446;26.000;2022-11-20T14:37:12;18.63;;;9.40;;
24425;SDS011;12611;44.446;26.000;2022-11-20T14:39:50;17.97;;;10.03;;
24425;SDS011;12611;44.446;26.000;2022-11-20T14:42:20;17.73;;;9.90;;
24425;SDS011;12611;44.446;26.000;2022-11-20T14:44:50;19.80;;;11.47;;
24425;SDS011;12611;44.446;26.000;2022-11-20T14:47:22;14.73;;;9.30;;
24425;SDS011;12611;44.446;26.000;2022-11-20T14:49:52;16.03;;;9.37;;
24425;SDS011;12611;44.446;26.000;2022-11-20T14:52:22;12.90;;;8.57;;
24425;SDS011;12611;44.446;26.000;2022-11-20T14:54:53;14.43;;;8.77;;
24425;SDS011;12611;44.446;26.000;2022-11-20T14:57:24;21.97;;;11.13;;
24425;SDS011;12611;44.446;26.000;2022-11-20T15:00:04;20.63;;;9.90;;
24425;SDS011;12611;44.446;26.000;2022-11-20T15:02:38;12.93;;;8.50;;
24425;SDS011;12611;44.446;26.000;2022-11-20T15:05:08;13.53;;;8.53;;
24425;SDS011;12611;44.446;26.000;2022-11-20T15:07:37;13.43;;;7.70;;